createdAt,value
2017-09-12T00:00:14.953Z,0
2017-09-12T00:01:37.083Z,0
2017-09-12T00:02:59.841Z,0
2017-09-12T00:04:21.979Z,0
2017-09-12T00:05:43.475Z,0
2017-09-12T00:07:05.613Z,0
2017-09-12T00:08:28.091Z,0
2017-09-12T00:09:49.932Z,0
2017-09-12T00:11:12.061Z,0
2017-09-12T00:12:34.252Z,0
2017-09-12T00:13:56.513Z,0
2017-09-12T00:15:18.014Z,0
2017-09-12T00:16:40.255Z,0
2017-09-12T00:18:02.737Z,0
2017-09-12T00:19:24.475Z,0
2017-09-12T00:20:46.946Z,0
2017-09-12T00:22:08.784Z,0
2017-09-12T00:23:31.264Z,0
2017-09-12T00:24:52.746Z,0
2017-09-12T00:26:14.892Z,0
2017-09-12T00:27:36.395Z,0
2017-09-12T00:28:58.542Z,0
2017-09-12T00:30:20.403Z,0
2017-09-12T00:31:41.597Z,0
2017-09-12T00:33:03.674Z,0
2017-09-12T00:34:26.140Z,0
2017-09-12T00:35:48.198Z,0
2017-09-12T00:37:10.664Z,0
2017-09-12T00:38:32.514Z,0
2017-09-12T00:39:54.461Z,0
2017-09-12T00:41:31.265Z,0
2017-09-12T00:42:53.717Z,0
2017-09-12T00:44:15.913Z,0
2017-09-12T00:45:38.049Z,0
2017-09-12T00:47:00.232Z,0
2017-09-12T00:48:22.454Z,0
2017-09-12T00:49:43.941Z,0
2017-09-12T00:51:06.062Z,0
2017-09-12T00:52:28.174Z,0
2017-09-12T00:53:49.834Z,0
2017-09-12T00:55:11.667Z,0
2017-09-12T00:56:33.885Z,0
2017-09-12T00:57:56.434Z,0
2017-09-12T00:59:17.601Z,0
2017-09-12T01:00:39.097Z,0
2017-09-12T01:02:00.596Z,0
2017-09-12T01:03:23.325Z,0
2017-09-12T01:04:44.468Z,0
2017-09-12T01:06:06.617Z,0
2017-09-12T01:07:28.435Z,0
2017-09-12T01:08:50.895Z,0
2017-09-12T01:10:13.054Z,0
2017-09-12T01:11:34.564Z,0
2017-09-12T01:12:56.808Z,0
2017-09-12T01:14:19.395Z,0
2017-09-12T01:15:41.864Z,0
2017-09-12T01:17:04.114Z,0
2017-09-12T01:18:25.931Z,0
2017-09-12T01:19:48.057Z,0
2017-09-12T01:21:09.934Z,0
2017-09-12T01:22:32.383Z,0
2017-09-12T01:23:53.866Z,0
2017-09-12T01:25:15.670Z,0
2017-09-12T01:26:37.844Z,0
2017-09-12T01:27:59.655Z,0
2017-09-12T01:29:21.813Z,0
2017-09-12T01:30:44.243Z,0
2017-09-12T01:32:05.734Z,0
2017-09-12T01:33:27.872Z,0
2017-09-12T01:34:50.017Z,0
2017-09-12T01:36:12.495Z,0
2017-09-12T01:37:34.290Z,0
2017-09-12T01:38:56.432Z,0
2017-09-12T01:40:18.573Z,0
2017-09-12T01:41:41.065Z,0
2017-09-12T01:43:03.208Z,0
2017-09-12T01:44:25.023Z,0
2017-09-12T01:45:46.830Z,0
2017-09-12T01:47:08.353Z,0
2017-09-12T01:48:30.535Z,0
2017-09-12T01:49:52.042Z,0
2017-09-12T01:51:13.536Z,0
2017-09-12T01:52:35.295Z,0
2017-09-12T01:53:57.515Z,0
2017-09-12T01:55:19.643Z,0
2017-09-12T01:56:41.484Z,0
2017-09-12T01:58:03.662Z,0
2017-09-12T01:59:25.495Z,0
2017-09-12T02:00:47.343Z,0
2017-09-12T02:02:09.455Z,0
2017-09-12T02:03:31.619Z,0
2017-09-12T02:04:53.110Z,0
2017-09-12T02:06:14.658Z,0
2017-09-12T02:07:37.130Z,0
2017-09-12T02:08:59.542Z,0
2017-09-12T02:10:21.350Z,0
2017-09-12T02:11:43.210Z,0
2017-09-12T02:13:05.443Z,0
2017-09-12T02:14:27.912Z,0
2017-09-12T02:15:49.405Z,0
2017-09-12T02:17:10.886Z,0
2017-09-12T02:18:32.395Z,0
2017-09-12T02:19:54.824Z,0
2017-09-12T02:21:16.407Z,0
2017-09-12T02:22:37.963Z,0
2017-09-12T02:23:59.452Z,0
2017-09-12T02:25:21.245Z,0
2017-09-12T02:26:42.414Z,0
2017-09-12T02:28:03.904Z,0
2017-09-12T02:29:25.721Z,0
2017-09-12T02:30:47.861Z,0
2017-09-12T02:32:09.024Z,0
2017-09-12T02:33:30.818Z,0
2017-09-12T02:34:52.640Z,0
2017-09-12T02:36:15.124Z,0
2017-09-12T02:37:37.554Z,0
2017-09-12T02:38:59.083Z,0
2017-09-12T02:40:21.544Z,0
2017-09-12T02:41:43.974Z,0
2017-09-12T02:43:06.085Z,0
2017-09-12T02:44:28.218Z,0
2017-09-12T02:45:50.414Z,0
2017-09-12T02:47:12.826Z,0
2017-09-12T02:48:33.987Z,0
2017-09-12T02:49:55.802Z,0
2017-09-12T02:51:18.314Z,0
2017-09-12T02:52:40.824Z,0
2017-09-12T02:54:03.373Z,0
2017-09-12T02:55:24.867Z,0
2017-09-12T02:56:46.999Z,0
2017-09-12T02:58:09.146Z,0
2017-09-12T02:59:30.642Z,0
2017-09-12T03:00:52.774Z,0
2017-09-12T03:02:14.028Z,0
2017-09-12T03:03:36.604Z,0
2017-09-12T03:04:58.776Z,0
2017-09-12T03:06:21.329Z,0
2017-09-12T03:07:43.124Z,0
2017-09-12T03:09:05.226Z,0
2017-09-12T03:10:27.033Z,0
2017-09-12T03:11:48.862Z,0
2017-09-12T03:13:10.722Z,0
2017-09-12T03:14:32.841Z,0
2017-09-12T03:15:54.971Z,0
2017-09-12T03:17:16.804Z,0
2017-09-12T03:18:38.283Z,0
2017-09-12T03:20:00.343Z,0
2017-09-12T03:21:22.463Z,0
2017-09-12T03:22:44.644Z,0
2017-09-12T03:24:06.623Z,0
2017-09-12T03:25:28.679Z,0
2017-09-12T03:26:50.814Z,0
2017-09-12T03:28:12.679Z,0
2017-09-12T03:29:34.292Z,0
2017-09-12T03:30:56.733Z,0
2017-09-12T03:32:18.865Z,0
2017-09-12T03:33:40.457Z,0
2017-09-12T03:35:01.973Z,0
2017-09-12T03:36:23.702Z,0
2017-09-12T03:37:46.197Z,0
2017-09-12T03:39:08.082Z,0
2017-09-12T03:40:30.641Z,0
2017-09-12T03:41:52.452Z,0
2017-09-12T03:43:14.268Z,0
2017-09-12T03:44:36.402Z,0
2017-09-12T03:45:58.312Z,0
2017-09-12T03:47:20.749Z,0
2017-09-12T03:48:42.237Z,0
2017-09-12T03:50:03.509Z,0
2017-09-12T03:51:25.339Z,0
2017-09-12T03:52:47.742Z,0
2017-09-12T03:54:09.256Z,0
2017-09-12T03:55:31.082Z,0
2017-09-12T03:56:53.642Z,0
2017-09-12T03:58:15.714Z,0
2017-09-12T03:59:37.222Z,0
2017-09-12T04:00:59.680Z,0
2017-09-12T04:02:21.816Z,0
2017-09-12T04:03:44.069Z,0
2017-09-12T04:05:06.601Z,0
2017-09-12T04:06:28.414Z,0
2017-09-12T04:07:50.067Z,0
2017-09-12T04:09:12.601Z,0
2017-09-12T04:10:34.730Z,0
2017-09-12T04:11:56.233Z,0
2017-09-12T04:13:18.373Z,0
2017-09-12T04:14:40.820Z,0
2017-09-12T04:16:02.300Z,0
2017-09-12T04:17:23.872Z,0
2017-09-12T04:18:45.711Z,0
2017-09-12T04:20:08.486Z,0
2017-09-12T04:21:30.342Z,0
2017-09-12T04:22:51.851Z,0
2017-09-12T04:24:13.354Z,0
2017-09-12T04:25:35.742Z,0
2017-09-12T04:26:57.552Z,0
2017-09-12T04:28:19.420Z,0
2017-09-12T04:29:41.254Z,0
2017-09-12T04:31:03.360Z,0
2017-09-12T04:32:25.772Z,0
2017-09-12T04:33:46.969Z,0
2017-09-12T04:35:09.112Z,0
2017-09-12T04:36:31.806Z,0
2017-09-12T04:37:53.935Z,0
2017-09-12T04:39:16.402Z,0
2017-09-12T04:40:38.221Z,0
2017-09-12T04:42:00.395Z,0
2017-09-12T04:43:22.530Z,0
2017-09-12T04:44:44.119Z,0
2017-09-12T04:46:06.261Z,0
2017-09-12T04:47:28.066Z,0
2017-09-12T04:48:50.234Z,0
2017-09-12T04:50:12.032Z,0
2017-09-12T04:51:34.235Z,0
2017-09-12T04:52:56.732Z,0
2017-09-12T04:54:18.554Z,0
2017-09-12T04:55:40.042Z,0
2017-09-12T04:57:02.257Z,5
2017-09-12T04:58:25.209Z,5
2017-09-12T04:59:47.034Z,5
2017-09-12T05:01:09.266Z,5
2017-09-12T05:02:31.409Z,5
2017-09-12T05:03:53.792Z,10
2017-09-12T05:05:16.226Z,10
2017-09-12T05:06:38.052Z,15
2017-09-12T05:07:59.854Z,15
2017-09-12T05:09:21.921Z,15
2017-09-12T05:10:43.721Z,15
2017-09-12T05:12:05.857Z,15
2017-09-12T05:13:28.012Z,15
2017-09-12T05:14:50.108Z,15
2017-09-12T05:16:12.575Z,20
2017-09-12T05:17:34.704Z,15
2017-09-12T05:18:56.530Z,20
2017-09-12T05:20:18.609Z,25
2017-09-12T05:21:40.732Z,30
2017-09-12T05:23:02.905Z,30
2017-09-12T05:24:24.394Z,35
2017-09-12T05:25:46.797Z,40
2017-09-12T05:27:08.607Z,40
2017-09-12T05:28:30.092Z,35
2017-09-12T05:29:52.234Z,35
2017-09-12T05:31:14.773Z,25
2017-09-12T05:32:36.595Z,25
2017-09-12T05:33:58.800Z,25
2017-09-12T05:35:20.953Z,25
2017-09-12T05:36:43.021Z,30
2017-09-12T05:38:05.233Z,25
2017-09-12T05:39:27.692Z,35
2017-09-12T05:40:49.504Z,30
2017-09-12T05:42:11.993Z,25
2017-09-12T05:43:34.129Z,30
2017-09-12T05:44:55.951Z,30
2017-09-12T05:46:17.796Z,30
2017-09-12T05:47:40.202Z,35
2017-09-12T05:49:02.012Z,45
2017-09-12T05:50:23.830Z,40
2017-09-12T05:51:45.982Z,45
2017-09-12T05:53:08.050Z,45
2017-09-12T05:54:29.223Z,60
2017-09-12T05:55:51.362Z,70
2017-09-12T05:57:13.197Z,70
2017-09-12T05:58:35.624Z,70
2017-09-12T05:59:57.785Z,70
2017-09-12T06:01:19.924Z,85
2017-09-12T06:02:42.363Z,75
2017-09-12T06:04:04.815Z,80
2017-09-12T06:05:26.972Z,90
2017-09-12T06:06:49.112Z,100
2017-09-12T06:08:11.243Z,85
2017-09-12T06:09:33.614Z,75
2017-09-12T06:10:55.439Z,85
2017-09-12T06:12:17.973Z,90
2017-09-12T06:13:40.102Z,85
2017-09-12T06:15:02.313Z,80
2017-09-12T06:16:24.770Z,75
2017-09-12T06:17:47.025Z,75
2017-09-12T06:19:08.824Z,70
2017-09-12T06:20:30.936Z,75
2017-09-12T06:21:52.442Z,75
2017-09-12T06:23:14.847Z,85
2017-09-12T06:24:36.928Z,90
2017-09-12T06:25:57.986Z,80
2017-09-12T06:27:19.561Z,80
2017-09-12T06:28:41.696Z,80
2017-09-12T06:30:03.460Z,90
2017-09-12T06:31:25.835Z,115
2017-09-12T06:32:47.933Z,135
2017-09-12T06:34:10.034Z,155
2017-09-12T06:35:32.221Z,160
2017-09-12T06:36:54.631Z,160
2017-09-12T06:38:16.133Z,160
2017-09-12T06:39:37.687Z,150
2017-09-12T06:40:59.803Z,155
2017-09-12T06:42:22.625Z,165
2017-09-12T06:43:44.437Z,180
2017-09-12T06:45:06.883Z,195
2017-09-12T06:46:28.356Z,220
2017-09-12T06:47:50.764Z,235
2017-09-12T06:49:13.051Z,210
2017-09-12T06:50:35.504Z,190
2017-09-12T06:51:57.994Z,190
2017-09-12T06:53:20.564Z,190
2017-09-12T06:54:42.400Z,195
2017-09-12T06:56:04.540Z,190
2017-09-12T06:57:26.354Z,185
2017-09-12T06:58:48.189Z,175
2017-09-12T07:00:10.349Z,145
2017-09-12T07:01:32.813Z,120
2017-09-12T07:02:55.456Z,105
2017-09-12T07:04:17.534Z,95
2017-09-12T07:05:39.376Z,95
2017-09-12T07:07:00.873Z,80
2017-09-12T07:08:22.719Z,90
2017-09-12T07:09:44.905Z,110
2017-09-12T07:11:07.066Z,115
2017-09-12T07:12:28.909Z,120
2017-09-12T07:13:51.364Z,140
2017-09-12T07:15:13.294Z,185
2017-09-12T07:16:35.859Z,145
2017-09-12T07:17:57.677Z,150
2017-09-12T07:19:19.498Z,145
2017-09-12T07:20:41.664Z,120
2017-09-12T07:22:03.507Z,130
2017-09-12T07:23:25.333Z,125
2017-09-12T07:24:47.142Z,160
2017-09-12T07:26:08.986Z,175
2017-09-12T07:27:30.824Z,170
2017-09-12T07:28:53.143Z,185
2017-09-12T07:30:15.333Z,210
2017-09-12T07:31:38.138Z,220
2017-09-12T07:32:59.767Z,215
2017-09-12T07:34:20.943Z,195
2017-09-12T07:35:42.783Z,195
2017-09-12T07:37:05.264Z,210
2017-09-12T07:38:27.427Z,225
2017-09-12T07:39:49.934Z,230
2017-09-12T07:41:12.442Z,250
2017-09-12T07:42:35.259Z,265
2017-09-12T07:43:57.081Z,280
2017-09-12T07:45:18.925Z,285
2017-09-12T07:46:41.073Z,305
2017-09-12T07:48:03.562Z,270
2017-09-12T07:49:24.823Z,260
2017-09-12T07:50:46.625Z,245
2017-09-12T07:52:08.584Z,260
2017-09-12T07:53:31.066Z,275
2017-09-12T07:54:53.417Z,265
2017-09-12T07:56:15.614Z,330
2017-09-12T07:57:37.494Z,360
2017-09-12T07:58:59.564Z,245
2017-09-12T08:00:22.786Z,240
2017-09-12T08:01:46.677Z,220
2017-09-12T08:03:09.980Z,155
2017-09-12T08:04:34.129Z,155
2017-09-12T08:05:57.534Z,165
2017-09-12T08:07:20.134Z,165
2017-09-12T08:08:43.499Z,175
2017-09-12T08:10:05.910Z,190
2017-09-12T08:11:28.099Z,215
2017-09-12T08:12:50.243Z,275
2017-09-12T08:14:12.108Z,265
2017-09-12T08:15:34.366Z,255
2017-09-12T08:16:56.555Z,210
2017-09-12T08:18:18.069Z,185
2017-09-12T08:19:40.233Z,180
2017-09-12T08:21:02.403Z,185
2017-09-12T08:22:24.532Z,200
2017-09-12T08:23:46.648Z,220
2017-09-12T08:25:08.783Z,205
2017-09-12T08:26:31.692Z,210
2017-09-12T08:27:54.163Z,205
2017-09-12T08:29:16.732Z,215
2017-09-12T08:30:38.925Z,230
2017-09-12T08:32:01.664Z,265
2017-09-12T08:33:23.802Z,320
2017-09-12T08:34:45.622Z,360
2017-09-12T08:36:07.787Z,390
2017-09-12T08:37:30.526Z,345
2017-09-12T08:38:52.473Z,345
2017-09-12T08:40:14.955Z,255
2017-09-12T08:41:36.773Z,290
2017-09-12T08:42:59.609Z,265
2017-09-12T08:44:21.508Z,245
2017-09-12T08:45:43.674Z,215
2017-09-12T08:47:04.861Z,210
2017-09-12T08:48:27.065Z,215
2017-09-12T08:49:49.240Z,240
2017-09-12T08:51:10.776Z,210
2017-09-12T08:52:32.605Z,220
2017-09-12T08:53:55.043Z,250
2017-09-12T08:55:17.195Z,215
2017-09-12T08:56:39.353Z,235
2017-09-12T08:58:01.872Z,290
2017-09-12T08:59:24.042Z,295
2017-09-12T09:00:46.201Z,310
2017-09-12T09:02:08.453Z,325
2017-09-12T09:03:30.612Z,325
2017-09-12T09:04:53.045Z,315
2017-09-12T09:06:14.870Z,295
2017-09-12T09:07:37.010Z,270
2017-09-12T09:08:58.513Z,305
2017-09-12T09:10:20.649Z,340
2017-09-12T09:11:42.812Z,310
2017-09-12T09:13:04.731Z,305
2017-09-12T09:14:26.712Z,265
2017-09-12T09:15:48.532Z,280
2017-09-12T09:17:10.046Z,280
2017-09-12T09:18:32.494Z,305
2017-09-12T09:19:54.767Z,310
2017-09-12T09:21:16.917Z,320
2017-09-12T09:22:39.382Z,315
2017-09-12T09:24:01.576Z,300
2017-09-12T09:25:24.031Z,305
2017-09-12T09:26:46.451Z,300
2017-09-12T09:28:08.321Z,330
2017-09-12T09:29:30.152Z,330
2017-09-12T09:30:52.611Z,320
2017-09-12T09:32:15.012Z,325
2017-09-12T09:33:37.201Z,275
2017-09-12T09:34:59.361Z,310
2017-09-12T09:36:21.291Z,225
2017-09-12T09:37:42.901Z,220
2017-09-12T09:39:05.412Z,200
2017-09-12T09:40:27.572Z,215
2017-09-12T09:41:49.718Z,225
2017-09-12T09:43:11.618Z,250
2017-09-12T09:44:33.510Z,235
2017-09-12T09:45:55.014Z,220
2017-09-12T09:47:17.562Z,215
2017-09-12T09:48:40.062Z,215
2017-09-12T09:50:02.507Z,220
2017-09-12T09:51:24.671Z,255
2017-09-12T09:52:46.589Z,250
2017-09-12T09:54:09.361Z,235
2017-09-12T09:55:31.819Z,310
2017-09-12T09:56:54.034Z,350
2017-09-12T09:58:16.197Z,390
2017-09-12T09:59:38.036Z,410
2017-09-12T10:00:59.553Z,365
2017-09-12T10:02:21.704Z,325
2017-09-12T10:03:43.834Z,225
2017-09-12T10:05:06.570Z,225
2017-09-12T10:06:28.722Z,205
2017-09-12T10:07:50.566Z,185
2017-09-12T10:09:12.735Z,180
2017-09-12T10:10:34.362Z,165
2017-09-12T10:11:56.521Z,185
2017-09-12T10:13:18.758Z,180
2017-09-12T10:14:41.231Z,185
2017-09-12T10:16:03.627Z,240
2017-09-12T10:17:26.112Z,285
2017-09-12T10:18:47.939Z,290
2017-09-12T10:20:10.094Z,235
2017-09-12T10:21:32.252Z,210
2017-09-12T10:22:54.403Z,215
2017-09-12T10:24:16.538Z,255
2017-09-12T10:25:38.682Z,310
2017-09-12T10:27:00.456Z,320
2017-09-12T10:28:22.582Z,325
2017-09-12T10:29:44.430Z,305
2017-09-12T10:31:06.032Z,350
2017-09-12T10:32:28.409Z,360
2017-09-12T10:33:50.858Z,285
2017-09-12T10:35:13.392Z,320
2017-09-12T10:36:34.912Z,385
2017-09-12T10:37:57.371Z,425
2017-09-12T10:39:19.523Z,450
2017-09-12T10:40:41.371Z,460
2017-09-12T10:42:03.552Z,455
2017-09-12T10:43:25.683Z,460
2017-09-12T10:44:47.825Z,460
2017-09-12T10:46:09.676Z,465
2017-09-12T10:47:32.301Z,450
2017-09-12T10:48:54.702Z,460
2017-09-12T10:50:16.523Z,480
2017-09-12T10:51:38.681Z,420
2017-09-12T10:53:00.913Z,415
2017-09-12T10:54:23.693Z,425
2017-09-12T10:55:46.161Z,425
2017-09-12T10:57:07.993Z,390
2017-09-12T10:58:30.162Z,420
2017-09-12T10:59:52.662Z,440
2017-09-12T11:01:14.179Z,415
2017-09-12T11:02:36.325Z,375
2017-09-12T11:03:58.143Z,410
2017-09-12T11:05:20.894Z,405
2017-09-12T11:06:43.041Z,370
2017-09-12T11:08:05.261Z,380
2017-09-12T11:09:27.162Z,355
2017-09-12T11:10:49.602Z,330
2017-09-12T11:12:11.552Z,335
2017-09-12T11:13:33.390Z,330
2017-09-12T11:14:55.215Z,270
2017-09-12T11:16:17.424Z,235
2017-09-12T11:17:39.911Z,220
2017-09-12T11:19:02.063Z,245
2017-09-12T11:20:24.533Z,270
2017-09-12T11:21:46.972Z,260
2017-09-12T11:23:09.486Z,290
2017-09-12T11:24:31.343Z,320
2017-09-12T11:25:53.703Z,280
2017-09-12T11:27:16.101Z,265
2017-09-12T11:28:37.586Z,245
2017-09-12T11:29:59.843Z,285
2017-09-12T11:31:21.432Z,275
2017-09-12T11:32:43.834Z,270
2017-09-12T11:34:05.993Z,275
2017-09-12T11:35:28.142Z,275
2017-09-12T11:36:50.012Z,335
2017-09-12T11:38:12.285Z,395
2017-09-12T11:39:34.526Z,355
2017-09-12T11:40:57.029Z,340
2017-09-12T11:42:19.193Z,325
2017-09-12T11:43:41.922Z,295
2017-09-12T11:45:04.482Z,270
2017-09-12T11:46:26.626Z,235
2017-09-12T11:47:49.163Z,250
2017-09-12T11:49:11.623Z,260
2017-09-12T11:50:34.089Z,175
2017-09-12T11:51:56.281Z,100
2017-09-12T11:53:18.104Z,80
2017-09-12T11:54:40.572Z,95
2017-09-12T11:56:02.404Z,95
2017-09-12T11:57:24.590Z,110
2017-09-12T11:58:46.732Z,130
2017-09-12T12:00:08.913Z,150
2017-09-12T12:01:30.755Z,165
2017-09-12T12:02:52.594Z,185
2017-09-12T12:04:14.765Z,200
2017-09-12T12:05:37.543Z,210
2017-09-12T12:07:00.054Z,210
2017-09-12T12:08:22.504Z,205
2017-09-12T12:09:44.664Z,215
2017-09-12T12:11:07.053Z,230
2017-09-12T12:12:29.513Z,245
2017-09-12T12:13:51.984Z,260
2017-09-12T12:15:13.797Z,275
2017-09-12T12:16:36.388Z,280
2017-09-12T12:17:58.962Z,280
2017-09-12T12:19:20.474Z,310
2017-09-12T12:20:42.605Z,350
2017-09-12T12:22:05.106Z,360
2017-09-12T12:23:26.942Z,365
2017-09-12T12:24:49.095Z,340
2017-09-12T12:26:11.253Z,310
2017-09-12T12:27:33.434Z,275
2017-09-12T12:28:54.941Z,240
2017-09-12T12:30:17.506Z,220
2017-09-12T12:31:39.344Z,205
2017-09-12T12:33:02.244Z,200
2017-09-12T12:34:24.382Z,190
2017-09-12T12:35:47.045Z,180
2017-09-12T12:37:08.915Z,180
2017-09-12T12:38:30.983Z,190
2017-09-12T12:39:53.144Z,185
2017-09-12T12:41:15.295Z,175
2017-09-12T12:42:37.792Z,200
2017-09-12T12:44:00.715Z,250
2017-09-12T12:45:22.865Z,315
2017-09-12T12:46:45.053Z,300
2017-09-12T12:48:06.894Z,305
2017-09-12T12:49:29.665Z,310
2017-09-12T12:50:52.364Z,280
2017-09-12T12:52:14.571Z,275
2017-09-12T12:53:37.065Z,275
2017-09-12T12:54:59.855Z,270
2017-09-12T12:56:22.050Z,260
2017-09-12T12:57:44.323Z,245
2017-09-12T12:59:06.215Z,215
2017-09-12T13:00:28.632Z,190
2017-09-12T13:01:51.232Z,170
2017-09-12T13:03:13.702Z,175
2017-09-12T13:04:35.902Z,185
2017-09-12T13:05:58.697Z,200
2017-09-12T13:07:20.659Z,225
2017-09-12T13:08:43.126Z,275
2017-09-12T13:10:05.283Z,320
2017-09-12T13:11:27.743Z,375
2017-09-12T13:12:49.933Z,425
2017-09-12T13:14:11.763Z,450
2017-09-12T13:15:33.614Z,450
2017-09-12T13:16:56.344Z,425
2017-09-12T13:18:17.923Z,390
2017-09-12T13:19:39.815Z,350
2017-09-12T13:21:01.994Z,305
2017-09-12T13:22:24.115Z,265
2017-09-12T13:23:46.643Z,235
2017-09-12T13:25:08.916Z,210
2017-09-12T13:26:30.734Z,190
2017-09-12T13:27:52.817Z,175
2017-09-12T13:29:14.963Z,165
2017-09-12T13:30:36.514Z,160
2017-09-12T13:31:58.683Z,150
2017-09-12T13:33:20.853Z,145
2017-09-12T13:34:42.423Z,140
2017-09-12T13:36:05.049Z,140
2017-09-12T13:37:27.573Z,140
2017-09-12T13:38:50.072Z,140
2017-09-12T13:40:12.544Z,135
2017-09-12T13:41:34.439Z,135
2017-09-12T13:42:56.272Z,130
2017-09-12T13:44:19.053Z,135
2017-09-12T13:45:41.539Z,135
2017-09-12T13:47:03.698Z,140
2017-09-12T13:48:25.555Z,135
2017-09-12T13:49:47.956Z,135
2017-09-12T13:51:10.563Z,135
2017-09-12T13:52:32.072Z,135
2017-09-12T13:53:53.909Z,140
2017-09-12T13:55:16.782Z,135
2017-09-12T13:56:39.082Z,135
2017-09-12T13:58:01.233Z,135
2017-09-12T13:59:23.889Z,135
2017-09-12T14:00:46.034Z,135
2017-09-12T14:02:08.502Z,135
2017-09-12T14:03:30.322Z,135
2017-09-12T14:04:52.151Z,135
2017-09-12T14:06:14.635Z,135
2017-09-12T14:07:36.781Z,135
2017-09-12T14:08:59.243Z,135
2017-09-12T14:10:21.593Z,135
2017-09-12T14:11:44.083Z,130
2017-09-12T14:13:06.372Z,135
2017-09-12T14:14:28.934Z,135
2017-09-12T14:15:51.098Z,135
2017-09-12T14:17:13.599Z,120
2017-09-12T14:18:36.071Z,135
2017-09-12T14:19:57.942Z,145
2017-09-12T14:21:20.080Z,125
2017-09-12T14:22:42.272Z,135
2017-09-12T14:24:03.791Z,140
2017-09-12T14:25:25.751Z,135
2017-09-12T14:26:48.256Z,135
2017-09-12T14:28:10.824Z,120
2017-09-12T14:29:32.662Z,135
2017-09-12T14:30:54.503Z,140
2017-09-12T14:32:17.036Z,135
2017-09-12T14:33:39.442Z,135
2017-09-12T14:35:01.960Z,135
2017-09-12T14:36:24.126Z,135
2017-09-12T14:37:46.315Z,135
2017-09-12T14:39:09.095Z,135
2017-09-12T14:40:31.635Z,135
2017-09-12T14:41:54.203Z,140
2017-09-12T14:43:16.372Z,140
2017-09-12T14:44:39.093Z,140
2017-09-12T14:46:01.566Z,140
2017-09-12T14:47:24.054Z,150
2017-09-12T14:48:45.906Z,130
2017-09-12T14:50:08.633Z,145
2017-09-12T14:51:30.803Z,150
2017-09-12T14:52:53.065Z,190
2017-09-12T14:54:14.914Z,170
2017-09-12T14:55:37.745Z,160
2017-09-12T14:56:59.681Z,190
2017-09-12T14:58:21.551Z,170
2017-09-12T14:59:43.366Z,145
2017-09-12T15:01:05.542Z,140
2017-09-12T15:02:28.024Z,95
2017-09-12T15:03:50.525Z,55
2017-09-12T15:05:12.651Z,45
2017-09-12T15:06:34.844Z,55
2017-09-12T15:07:56.998Z,60
2017-09-12T15:09:19.497Z,60
2017-09-12T15:10:41.681Z,60
2017-09-12T15:12:04.211Z,70
2017-09-12T15:13:26.711Z,90
2017-09-12T15:14:49.305Z,135
2017-09-12T15:16:11.806Z,210
2017-09-12T15:17:34.553Z,280
2017-09-12T15:18:56.702Z,295
2017-09-12T15:20:18.863Z,250
2017-09-12T15:21:41.334Z,225
2017-09-12T15:23:03.522Z,240
2017-09-12T15:24:26.002Z,205
2017-09-12T15:25:48.182Z,185
2017-09-12T15:27:10.342Z,170
2017-09-12T15:28:32.764Z,155
2017-09-12T15:29:55.293Z,135
2017-09-12T15:31:17.765Z,130
2017-09-12T15:32:39.921Z,145
2017-09-12T15:34:02.879Z,150
2017-09-12T15:35:25.043Z,140
2017-09-12T15:36:47.225Z,130
2017-09-12T15:38:09.367Z,120
2017-09-12T15:39:32.163Z,115
2017-09-12T15:40:54.005Z,110
2017-09-12T15:42:16.162Z,105
2017-09-12T15:43:38.634Z,105
2017-09-12T15:45:00.729Z,105
2017-09-12T15:46:23.240Z,95
2017-09-12T15:47:45.754Z,90
2017-09-12T15:49:08.335Z,90
2017-09-12T15:50:30.422Z,90
2017-09-12T15:51:52.603Z,90
2017-09-12T15:53:14.839Z,90
2017-09-12T15:54:36.772Z,105
2017-09-12T15:55:59.172Z,120
2017-09-12T15:57:21.325Z,135
2017-09-12T15:58:43.557Z,155
2017-09-12T16:00:06.064Z,160
2017-09-12T16:01:28.780Z,150
2017-09-12T16:02:51.381Z,140
2017-09-12T16:04:13.679Z,130
2017-09-12T16:05:36.266Z,120
2017-09-12T16:06:58.973Z,115
2017-09-12T16:08:21.183Z,115
2017-09-12T16:09:43.688Z,115
2017-09-12T16:11:05.868Z,105
2017-09-12T16:12:28.664Z,110
2017-09-12T16:13:50.855Z,110
2017-09-12T16:15:12.705Z,105
2017-09-12T16:16:34.862Z,105
2017-09-12T16:17:57.044Z,100
2017-09-12T16:19:19.536Z,100
2017-09-12T16:20:41.723Z,95
2017-09-12T16:22:03.884Z,100
2017-09-12T16:23:26.865Z,95
2017-09-12T16:24:49.044Z,95
2017-09-12T16:26:11.594Z,90
2017-09-12T16:27:33.761Z,90
2017-09-12T16:28:56.338Z,90
2017-09-12T16:30:18.299Z,85
2017-09-12T16:31:40.863Z,85
2017-09-12T16:33:03.030Z,85
2017-09-12T16:34:25.168Z,80
2017-09-12T16:35:47.655Z,80
2017-09-12T16:37:09.165Z,80
2017-09-12T16:38:31.024Z,80
2017-09-12T16:39:53.029Z,75
2017-09-12T16:41:15.175Z,75
2017-09-12T16:42:37.802Z,75
2017-09-12T16:43:59.635Z,70
2017-09-12T16:45:21.995Z,70
2017-09-12T16:46:44.154Z,70
2017-09-12T16:48:06.645Z,65
2017-09-12T16:49:28.450Z,60
2017-09-12T16:50:50.865Z,60
2017-09-12T16:52:13.353Z,55
2017-09-12T16:53:35.492Z,55
2017-09-12T16:54:57.813Z,55
2017-09-12T16:56:20.206Z,55
2017-09-12T16:57:42.568Z,50
2017-09-12T16:59:04.505Z,50
2017-09-12T17:00:26.993Z,50
2017-09-12T17:01:49.086Z,50
2017-09-12T17:03:11.575Z,45
2017-09-12T17:04:33.739Z,45
2017-09-12T17:05:55.899Z,45
2017-09-12T17:07:18.360Z,45
2017-09-12T17:08:40.818Z,45
2017-09-12T17:10:03.305Z,45
2017-09-12T17:11:25.794Z,40
2017-09-12T17:12:48.354Z,40
2017-09-12T17:14:10.830Z,35
2017-09-12T17:15:32.694Z,35
2017-09-12T17:16:54.857Z,30
2017-09-12T17:18:17.703Z,30
2017-09-12T17:19:39.557Z,25
2017-09-12T17:21:01.703Z,25
2017-09-12T17:22:24.308Z,25
2017-09-12T17:23:46.646Z,20
2017-09-12T17:25:08.867Z,20
2017-09-12T17:26:31.040Z,20
2017-09-12T17:27:53.206Z,20
2017-09-12T17:29:15.664Z,15
2017-09-12T17:30:37.851Z,15
2017-09-12T17:32:00.315Z,15
2017-09-12T17:33:22.814Z,15
2017-09-12T17:34:45.576Z,15
2017-09-12T17:36:07.416Z,10
2017-09-12T17:37:29.604Z,10
2017-09-12T17:38:51.804Z,10
2017-09-12T17:40:14.224Z,10
2017-09-12T17:41:35.786Z,10
2017-09-12T17:42:57.967Z,5
2017-09-12T17:44:20.523Z,5
2017-09-12T17:45:43.059Z,5
2017-09-12T17:47:05.604Z,5
2017-09-12T17:48:29.537Z,5
2017-09-12T17:49:52.395Z,5
2017-09-12T17:51:15.184Z,5
2017-09-12T17:52:37.794Z,0
2017-09-12T17:54:00.316Z,0
2017-09-12T17:55:22.466Z,0
2017-09-12T17:56:45.267Z,0
2017-09-12T17:58:07.792Z,0
2017-09-12T17:59:30.293Z,0
2017-09-12T18:00:52.853Z,0
2017-09-12T18:02:15.017Z,0
2017-09-12T18:03:37.524Z,0
2017-09-12T18:05:00.035Z,0
2017-09-12T18:06:22.576Z,0
2017-09-12T18:07:45.355Z,0
2017-09-12T18:09:07.862Z,0
2017-09-12T18:10:29.776Z,0
2017-09-12T18:11:52.074Z,0
2017-09-12T18:13:14.716Z,0
2017-09-12T18:14:37.315Z,0
2017-09-12T18:15:59.891Z,0
2017-09-12T18:17:22.634Z,0
2017-09-12T18:18:45.443Z,0
2017-09-12T18:20:07.705Z,0
2017-09-12T18:21:29.993Z,0
2017-09-12T18:22:52.196Z,0
2017-09-12T18:24:14.657Z,0
2017-09-12T18:25:37.236Z,0
2017-09-12T18:26:59.148Z,0
2017-09-12T18:28:21.057Z,0
2017-09-12T18:29:43.493Z,0
2017-09-12T18:31:06.026Z,0
2017-09-12T18:32:28.540Z,0
2017-09-12T18:33:50.718Z,0
2017-09-12T18:35:13.243Z,0
2017-09-12T18:36:35.764Z,0
2017-09-12T18:37:57.941Z,0
2017-09-12T18:39:20.519Z,0
2017-09-12T18:40:43.332Z,0
2017-09-12T18:42:05.934Z,0
2017-09-12T18:43:27.813Z,0
2017-09-12T18:44:50.024Z,0
2017-09-12T18:46:12.128Z,0
2017-09-12T18:47:34.433Z,0
2017-09-12T18:48:56.716Z,0
2017-09-12T18:50:19.235Z,0
2017-09-12T18:51:42.106Z,0
2017-09-12T18:53:05.058Z,0
2017-09-12T18:54:27.505Z,0
2017-09-12T18:55:49.884Z,0
2017-09-12T18:57:13.184Z,0
2017-09-12T18:58:36.137Z,0
2017-09-12T18:59:59.022Z,0
2017-09-12T19:01:21.605Z,0
2017-09-12T19:02:44.048Z,0
2017-09-12T19:04:06.638Z,0
2017-09-12T19:05:29.694Z,0
2017-09-12T19:06:52.493Z,0
2017-09-12T19:08:15.466Z,0
2017-09-12T19:09:38.195Z,0
2017-09-12T19:11:00.805Z,0
2017-09-12T19:12:23.055Z,0
2017-09-12T19:13:45.859Z,0
2017-09-12T19:15:08.946Z,0
2017-09-12T19:16:31.637Z,0
2017-09-12T19:17:54.051Z,0
2017-09-12T19:19:17.197Z,0
2017-09-12T19:20:39.966Z,0
2017-09-12T19:22:02.688Z,0
2017-09-12T19:23:25.668Z,0
2017-09-12T19:24:48.714Z,0
2017-09-12T19:26:11.365Z,0